Stations météo

réclame
Mon MeteoGroup
Edinburgh, Grande-Bretagne (3160): Température de l'air & dewpoint: 15.10.2019 19:00:00 - 21.10.2019 19:00:00 (BST)Edinburgh, Grande-Bretagne (3160): Vitesse du vent: 15.10.2019 19:00:00 - 21.10.2019 19:00:00 (BST)Edinburgh, Grande-Bretagne (3160): Direction du vent: 15.10.2019 19:00:00 - 21.10.2019 19:00:00 (BST)Edinburgh, Grande-Bretagne (3160): visibility: 15.10.2019 19:00:00 - 21.10.2019 19:00:00 (BST)
Date & Time tt [°C] td [°C] ff [km/h] ff [knt] dd vv [km]
21.10.2019 19:00:00 8,0 4,0 15 8 WSW 10
21.10.2019 18:00:00 8,0 4,0 16 9 W 10
21.10.2019 17:00:00 8,0 3,0 15 8 W 10
21.10.2019 16:00:00 9,0 4,0 21 11 W 10
21.10.2019 15:00:00 9,0 4,0 13 7 W 10
21.10.2019 14:00:00 10,0 3,0 18 10 WSW 10
21.10.2019 13:00:00 10,0 5,0 8 4 WSW 10
21.10.2019 12:00:00 7,0 4,0 4 2 - 10
21.10.2019 11:00:00 7,0 4,0 5 3 - 10
21.10.2019 10:00:00 4,0 3,0 5 3 - 10
21.10.2019 09:00:00 1,0 1,0 9 5 WSW 10
21.10.2019 08:00:00 1,0 1,0 8 4 WSW 10
21.10.2019 07:00:00 1,0 1,0 5 3 - 10
21.10.2019 06:00:00 1,0 1,0 5 3 WSW 10
21.10.2019 05:00:00 3,0 3,0 5 3 W 10
21.10.2019 04:00:00 6,0 3,0 5 3 W 10
21.10.2019 03:00:00 6,0 4,0 4 2 WSW 10
21.10.2019 02:00:00 7,0 3,0 8 4 WSW 10
21.10.2019 01:00:00 7,0 3,0 5 3 - 10
21.10.2019 00:00:00 7,0 3,0 5 3 - 10
20.10.2019 23:00:00 6,0 4,0 8 4 WSW 10
20.10.2019 22:00:00 5,0 3,0 4 2 - 10
20.10.2019 21:00:00 6,0 4,0 5 3 - 10
20.10.2019 20:00:00 8,0 4,0 11 6 NNE 10
20.10.2019 19:00:00 9,0 5,0 13 7 NE 10
20.10.2019 18:00:00 9,0 6,0 5 3 - 10
20.10.2019 17:00:00 10,0 6,0 8 4 NE 10
20.10.2019 16:00:00 10,0 5,0 11 6 NNE 10
20.10.2019 15:00:00 11,0 5,0 11 6 N 10
20.10.2019 14:00:00 11,0 5,0 11 6 NNE 10
20.10.2019 13:00:00 10,0 4,0 9 5 N 10
20.10.2019 12:00:00 10,0 4,0 9 5 N 10
20.10.2019 11:00:00 9,0 4,0 8 4 NNW 10
20.10.2019 10:00:00 8,0 4,0 5 3 - 10
20.10.2019 09:00:00 8,0 4,0 5 3 - 10
20.10.2019 08:00:00 7,0 4,0 8 4 NW 10
20.10.2019 07:00:00 8,0 4,0 9 5 WNW 10
20.10.2019 06:00:00 7,0 3,0 9 5 WNW 10
20.10.2019 05:00:00 7,0 3,0 11 6 NW 10
20.10.2019 04:00:00 7,0 3,0 8 4 W 10
20.10.2019 03:00:00 7,0 3,0 5 3 - 10
20.10.2019 02:00:00 8,0 4,0 11 6 NNW 10
20.10.2019 01:00:00 8,0 5,0 5 3 - 10
20.10.2019 00:00:00 8,0 6,0 5 3 - 10
19.10.2019 23:00:00 9,0 7,0 4 2 - 10
19.10.2019 22:00:00 9,0 6,0 8 4 NNW 10
19.10.2019 21:00:00 8,0 6,0 5 3 - 10
19.10.2019 20:00:00 9,0 7,0 5 3 - 10
19.10.2019 19:00:00 10,0 7,0 8 4 N 10
19.10.2019 18:00:00 10,0 7,0 2 1 - 10
19.10.2019 17:00:00 11,0 7,0 8 4 NNE 10
19.10.2019 16:00:00 11,0 7,0 5 3 - 10
19.10.2019 15:00:00 11,0 7,0 4 2 - 10
19.10.2019 14:00:00 11,0 7,0 13 7 NE 10
19.10.2019 13:00:00 11,0 6,0 13 7 NNE 10
19.10.2019 12:00:00 10,0 6,0 13 7 N 10
19.10.2019 11:00:00 10,0 7,0 15 8 NNE 10
19.10.2019 10:00:00 9,0 6,0 15 8 N 10
19.10.2019 09:00:00 9,0 7,0 18 10 N 8
19.10.2019 08:00:00 9,0 9,0 11 6 N 8
19.10.2019 07:00:00 9,0 9,0 5 3 - 9
19.10.2019 06:00:00 9,0 9,0 4 2 - 8
19.10.2019 05:00:00 9,0 9,0 5 3 - 10
19.10.2019 04:00:00 9,0 9,0 15 8 NNE 10
19.10.2019 03:00:00 9,0 9,0 15 8 NNE 10
19.10.2019 02:00:00 9,0 9,0 13 7 NNE 8
19.10.2019 01:00:00 9,0 9,0 11 6 NNE 9
19.10.2019 00:00:00 9,0 9,0 9 5 N 8
18.10.2019 23:00:00 8,0 8,0 5 3 WSW 4,0
18.10.2019 22:00:00 - - - - - -
18.10.2019 21:00:00 8,0 8,0 8 4 WSW 3,5
18.10.2019 20:00:00 8,0 8,0 5 3 WSW 10
18.10.2019 19:00:00 8,0 8,0 4 2 WSW 10
18.10.2019 18:00:00 9,0 8,0 4 2 - 10
18.10.2019 17:00:00 9,0 9,0 5 3 - 10
18.10.2019 16:00:00 10,0 10,0 5 3 N 7
18.10.2019 15:00:00 11,0 9,0 5 3 N 10
18.10.2019 14:00:00 11,0 9,0 5 3 - 10
18.10.2019 13:00:00 11,0 9,0 4 2 - 10
18.10.2019 12:00:00 10,0 9,0 5 3 - 10
18.10.2019 11:00:00 9,0 9,0 2 1 - 10
18.10.2019 10:00:00 8,0 8,0 2 1 WNW 10
18.10.2019 09:00:00 7,0 7,0 2 1 - 10
18.10.2019 08:00:00 7,0 7,0 5 3 - 10
18.10.2019 07:00:00 6,0 6,0 4 2 - 10
18.10.2019 06:00:00 5,0 5,0 2 1 ENE 10
18.10.2019 05:00:00 6,0 6,0 2 1 NNE 10
18.10.2019 04:00:00 6,0 6,0 4 2 ESE 10
18.10.2019 03:00:00 6,0 6,0 9 5 E 10
18.10.2019 02:00:00 8,0 6,0 8 4 ENE 10
18.10.2019 01:00:00 10,0 7,0 9 5 ESE 10
18.10.2019 00:00:00 9,0 8,0 8 4 E 10
17.10.2019 23:00:00 10,0 8,0 11 6 E 10
17.10.2019 22:00:00 10,0 7,0 13 7 E 10
17.10.2019 21:00:00 10,0 7,0 11 6 E 10
17.10.2019 20:00:00 10,0 6,0 13 7 SE 10
17.10.2019 19:00:00 12,0 7,0 15 8 SE 10
17.10.2019 18:00:00 13,0 7,0 13 7 SE 10
17.10.2019 17:00:00 13,0 7,0 13 7 SSE 10
17.10.2019 16:00:00 13,0 8,0 11 6 S 10
17.10.2019 15:00:00 13,0 8,0 9 5 S 10
17.10.2019 14:00:00 13,0 9,0 15 8 SE 10
17.10.2019 13:00:00 12,0 9,0 8 4 SE 10
17.10.2019 12:00:00 11,0 8,0 11 6 ESE 10
17.10.2019 11:00:00 9,0 9,0 8 4 ENE 10
17.10.2019 10:00:00 6,0 6,0 5 3 NE 10
17.10.2019 09:00:00 2,0 2,0 0 0 N 10
17.10.2019 08:00:00 0,0 0,0 0 0 N 10
17.10.2019 07:00:00 1,0 1,0 4 2 - 10
17.10.2019 06:00:00 1,0 1,0 2 1 - 10
17.10.2019 05:00:00 2,0 2,0 2 1 SSE 10
17.10.2019 04:00:00 1,0 1,0 2 1 NW 10
17.10.2019 03:00:00 2,0 2,0 2 1 - 10
17.10.2019 02:00:00 4,0 3,0 4 2 W 10
17.10.2019 01:00:00 4,0 3,0 5 3 SW 10
17.10.2019 00:00:00 4,0 4,0 8 4 WSW 10
16.10.2019 23:00:00 5,0 5,0 5 3 WSW 10
16.10.2019 22:00:00 5,0 5,0 15 8 WSW 10
16.10.2019 21:00:00 8,0 6,0 13 7 SSW 10
16.10.2019 20:00:00 7,0 6,0 13 7 SW 10
16.10.2019 19:00:00 7,0 6,0 13 7 WSW 10
16.10.2019 18:00:00 10,0 7,0 11 6 WSW 10
16.10.2019 17:00:00 12,0 8,0 15 8 WSW 10
16.10.2019 16:00:00 13,0 8,0 15 8 W 10
16.10.2019 15:00:00 13,0 8,0 21 11 W 10
16.10.2019 14:00:00 12,0 9,0 22 12 WSW 10
16.10.2019 13:00:00 11,0 10,0 16 9 W 10
16.10.2019 12:00:00 12,0 11,0 2 1 - 10
16.10.2019 11:00:00 11,0 11,0 8 4 NE 10
16.10.2019 10:00:00 11,0 10,0 9 5 ENE 10
16.10.2019 09:00:00 11,0 10,0 9 5 NE 10
16.10.2019 08:00:00 10,0 10,0 9 5 E 10
16.10.2019 07:00:00 10,0 9,0 9 5 ENE 10
16.10.2019 06:00:00 9,0 9,0 11 6 ENE 10
16.10.2019 05:00:00 10,0 9,0 13 7 ENE 10
16.10.2019 04:00:00 9,0 8,0 11 6 ENE 10
16.10.2019 03:00:00 8,0 7,0 9 5 ENE 10
16.10.2019 02:00:00 9,0 7,0 8 4 ENE 10
16.10.2019 01:00:00 9,0 8,0 8 4 E 10
16.10.2019 00:00:00 10,0 8,0 9 5 SE 10
15.10.2019 23:00:00 10,0 8,0 9 5 ESE 10
15.10.2019 22:00:00 10,0 8,0 8 4 SSE 10
15.10.2019 21:00:00 11,0 9,0 8 4 SSE 10
15.10.2019 20:00:00 11,0 9,0 4 2 - 10
15.10.2019 19:00:00 11,0 10,0 5 3 ENE 10

tt = Température de l'air
td = dewpoint
ff = Vitesse du vent
dd = Direction du vent
vv = visibility

stations d'obs. à proximité